Time;durP1;ratioP1;P1;durP2;ratioP2;P2;SDS_P1;SDS_P2;PMS_P1;PMS_P2;Temp;Humidity;BMP_temperature;BMP_pressure;BME280_temperature;BME280_humidity;BME280_pressure;Samples;Min_cycle;Max_cycle;Signal;HPM_P1;HPM_P2
2023/08/12 00:00:20;;;;;;;12.90;3.80;;;;;;;;;;5026658;28;20064;-75
2023/08/12 00:02:46;;;;;;;4.38;3.25;;;;;;;;;;5027722;28;20072;-76
2023/08/12 00:05:13;;;;;;;7.65;3.92;;;;;;;;;;5027643;28;20029;-76
2023/08/12 00:07:42;;;;;;;8.73;3.67;;;;;;;;;;5007732;28;20073;-76
2023/08/12 00:10:09;;;;;;;6.95;3.30;;;;;;;;;;5024214;28;20051;-76
2023/08/12 00:12:36;;;;;;;3.80;3.08;;;;;;;;;;5025111;28;20107;-76
2023/08/12 00:15:04;;;;;;;9.15;3.17;;;;;;;;;;5024894;28;20057;-75
2023/08/12 00:17:30;;;;;;;9.10;3.63;;;;;;;;;;5039692;28;20037;-75
2023/08/12 00:19:56;;;;;;;8.18;3.30;;;;;;;;;;5021374;28;20030;-74
2023/08/12 00:22:22;;;;;;;7.20;3.40;;;;;;;;;;5024823;28;20549;-75
2023/08/12 00:24:49;;;;;;;5.28;2.88;;;;;;;;;;5027919;28;20029;-75
2023/08/12 00:27:15;;;;;;;6.40;3.05;;;;;;;;;;5024810;28;20080;-76
2023/08/12 00:29:41;;;;;;;6.88;3.05;;;;;;;;;;5028464;28;20109;-75
2023/08/12 00:32:09;;;;;;;6.28;3.10;;;;;;;;;;5040392;28;20037;-75
2023/08/12 00:34:35;;;;;;;6.38;3.45;;;;;;;;;;5026996;28;20029;-75
2023/08/12 00:37:01;;;;;;;10.05;3.42;;;;;;;;;;5025615;28;20532;-75
2023/08/12 00:39:27;;;;;;;6.70;3.85;;;;;;;;;;5027212;28;20037;-76
2023/08/12 00:41:53;;;;;;;8.77;4.20;;;;;;;;;;5023137;28;20045;-76
2023/08/12 00:44:19;;;;;;;6.35;3.80;;;;;;;;;;5025234;28;20066;-76
2023/08/12 00:46:45;;;;;;;5.78;3.53;;;;;;;;;;5021320;28;20033;-76
2023/08/12 00:49:12;;;;;;;7.72;3.50;;;;;;;;;;5023821;28;20037;-75
2023/08/12 00:51:41;;;;;;;6.40;3.47;;;;;;;;;;5027789;28;20308;-76
2023/08/12 00:54:07;;;;;;;7.35;3.45;;;;;;;;;;5025533;28;20029;-76
2023/08/12 00:56:34;;;;;;;5.50;3.70;;;;;;;;;;5022694;28;20115;-76
2023/08/12 00:59:02;;;;;;;7.35;3.50;;;;;;;;;;5039106;28;20099;-76
2023/08/12 01:01:28;;;;;;;8.73;4.05;;;;;;;;;;5021153;28;20103;-75
2023/08/12 01:03:54;;;;;;;6.65;4.15;;;;;;;;;;5036423;28;20495;-77
2023/08/12 01:06:20;;;;;;;7.82;3.92;;;;;;;;;;5030740;28;20041;-75
2023/08/12 01:08:46;;;;;;;7.70;3.40;;;;;;;;;;5025292;28;20426;-77
2023/08/12 01:11:21;;;;;;;7.70;4.25;;;;;;;;;;5039682;28;20034;-76
2023/08/12 01:13:59;;;;;;;6.85;4.35;;;;;;;;;;5026687;28;20121;-76
2023/08/12 01:16:28;;;;;;;9.05;4.18;;;;;;;;;;5024376;28;20297;-76
2023/08/12 01:18:54;;;;;;;6.65;3.63;;;;;;;;;;5022530;28;20061;-76
2023/08/12 01:21:22;;;;;;;8.15;4.07;;;;;;;;;;5025909;28;20041;-76
2023/08/12 01:23:48;;;;;;;7.10;3.83;;;;;;;;;;5025925;28;20459;-76
2023/08/12 01:26:14;;;;;;;7.47;4.40;;;;;;;;;;5017066;28;20029;-75
2023/08/12 01:28:40;;;;;;;7.90;3.70;;;;;;;;;;5025959;28;20460;-76
2023/08/12 01:31:14;;;;;;;7.07;4.15;;;;;;;;;;5023363;28;20116;-76
2023/08/12 01:33:43;;;;;;;9.93;4.60;;;;;;;;;;5025430;28;20033;-76
2023/08/12 01:36:13;;;;;;;8.32;3.75;;;;;;;;;;5024723;28;20044;-75
2023/08/12 01:38:39;;;;;;;7.72;4.15;;;;;;;;;;5025750;28;20033;-76
2023/08/12 01:41:05;;;;;;;8.32;4.63;;;;;;;;;;5029448;28;20037;-76
2023/08/12 01:43:31;;;;;;;10.18;5.25;;;;;;;;;;5025354;28;20033;-76
2023/08/12 01:45:57;;;;;;;7.95;4.18;;;;;;;;;;5022663;28;20025;-76
2023/08/12 01:48:23;;;;;;;9.23;4.78;;;;;;;;;;5024925;28;20041;-76
2023/08/12 01:50:49;;;;;;;8.68;4.65;;;;;;;;;;5024849;28;20037;-76
2023/08/12 01:53:15;;;;;;;12.35;5.50;;;;;;;;;;5025322;28;20034;-76
2023/08/12 01:55:43;;;;;;;8.68;4.80;;;;;;;;;;5040240;28;20033;-76
2023/08/12 01:58:09;;;;;;;8.57;5.05;;;;;;;;;;5024366;28;20037;-76
2023/08/12 02:00:36;;;;;;;9.88;5.00;;;;;;;;;;5024865;28;20045;-76
2023/08/12 02:03:02;;;;;;;10.90;5.38;;;;;;;;;;5038061;28;20049;-76
2023/08/12 02:05:28;;;;;;;10.00;6.00;;;;;;;;;;5022603;28;20585;-76
2023/08/12 02:07:54;;;;;;;7.93;5.05;;;;;;;;;;5024271;28;20033;-77
2023/08/12 02:10:20;;;;;;;10.32;5.65;;;;;;;;;;5026649;28;20100;-77
2023/08/12 02:12:46;;;;;;;9.23;5.72;;;;;;;;;;5023141;28;20076;-76
2023/08/12 02:15:12;;;;;;;12.68;5.03;;;;;;;;;;5021122;28;20037;-76
2023/08/12 02:17:39;;;;;;;9.88;5.32;;;;;;;;;;5039989;28;20160;-76
2023/08/12 02:20:05;;;;;;;7.15;4.72;;;;;;;;;;5024589;28;20033;-76
2023/08/12 02:22:31;;;;;;;7.05;4.95;;;;;;;;;;5025755;28;20116;-75
2023/08/12 02:24:57;;;;;;;12.25;5.50;;;;;;;;;;5024651;28;20109;-76
2023/08/12 02:27:23;;;;;;;13.35;5.55;;;;;;;;;;5024701;28;20034;-76
2023/08/12 02:29:49;;;;;;;9.82;5.43;;;;;;;;;;5025886;28;20414;-75
2023/08/12 02:32:15;;;;;;;7.97;5.32;;;;;;;;;;5022497;28;20120;-75
2023/08/12 02:34:41;;;;;;;12.93;6.75;;;;;;;;;;5026367;28;20041;-75
2023/08/12 02:37:07;;;;;;;9.30;5.70;;;;;;;;;;5026509;28;20478;-76
2023/08/12 02:39:33;;;;;;;9.57;6.00;;;;;;;;;;5037831;28;20037;-74
2023/08/12 02:41:59;;;;;;;9.98;6.30;;;;;;;;;;5020567;28;20049;-74
2023/08/12 02:44:26;;;;;;;10.88;6.40;;;;;;;;;;5022253;28;20083;-73
2023/08/12 02:46:51;;;;;;;8.32;5.57;;;;;;;;;;5026363;28;20036;-74
2023/08/12 02:49:17;;;;;;;8.88;6.22;;;;;;;;;;5023637;28;20108;-74
2023/08/12 02:51:43;;;;;;;11.70;6.97;;;;;;;;;;5039702;28;20191;-76
2023/08/12 02:54:09;;;;;;;14.02;6.68;;;;;;;;;;5023361;28;20088;-76
2023/08/12 02:56:36;;;;;;;9.05;6.63;;;;;;;;;;5019012;28;20471;-76
2023/08/12 02:59:02;;;;;;;14.38;6.93;;;;;;;;;;5020892;28;20049;-76
2023/08/12 03:01:28;;;;;;;7.60;5.57;;;;;;;;;;5023142;28;20033;-76
2023/08/12 03:03:54;;;;;;;13.68;6.40;;;;;;;;;;5020621;28;20030;-76
2023/08/12 03:06:20;;;;;;;10.30;6.70;;;;;;;;;;5025585;28;20116;-77
2023/08/12 03:08:46;;;;;;;9.10;6.38;;;;;;;;;;5023140;28;20037;-75
2023/08/12 03:11:12;;;;;;;8.18;6.03;;;;;;;;;;5016776;28;20045;-75
2023/08/12 03:13:38;;;;;;;12.98;6.60;;;;;;;;;;5024534;28;20117;-75
2023/08/12 03:16:04;;;;;;;12.43;6.72;;;;;;;;;;5024591;28;20196;-77
2023/08/12 03:18:31;;;;;;;11.85;7.15;;;;;;;;;;5024978;28;20436;-76
2023/08/12 03:20:56;;;;;;;11.55;7.68;;;;;;;;;;5025465;28;20546;-75
2023/08/12 03:23:23;;;;;;;11.20;6.97;;;;;;;;;;5026106;28;20163;-75
2023/08/12 03:25:48;;;;;;;9.90;6.00;;;;;;;;;;5028865;28;20052;-74
2023/08/12 03:28:14;;;;;;;10.13;6.63;;;;;;;;;;5028466;28;20598;-75
2023/08/12 03:30:40;;;;;;;16.40;6.72;;;;;;;;;;5028021;28;20463;-75
2023/08/12 03:33:07;;;;;;;15.98;7.50;;;;;;;;;;5026147;28;20094;-75
2023/08/12 03:35:33;;;;;;;14.98;6.32;;;;;;;;;;5024360;28;20163;-75
2023/08/12 03:37:59;;;;;;;10.07;5.95;;;;;;;;;;5026672;28;20056;-75
2023/08/12 03:40:25;;;;;;;13.50;6.75;;;;;;;;;;5028136;28;20296;-75
2023/08/12 03:42:51;;;;;;;9.13;6.88;;;;;;;;;;5010419;28;20096;-74
2023/08/12 03:45:17;;;;;;;12.55;6.25;;;;;;;;;;5028110;28;20041;-75
2023/08/12 03:47:43;;;;;;;11.60;6.88;;;;;;;;;;5027054;28;20041;-75
2023/08/12 03:50:09;;;;;;;10.63;6.55;;;;;;;;;;5041574;28;20062;-75
2023/08/12 03:52:35;;;;;;;10.27;6.85;;;;;;;;;;5045637;28;20041;-75
2023/08/12 03:55:01;;;;;;;11.07;6.47;;;;;;;;;;5027783;28;20037;-75
2023/08/12 03:57:27;;;;;;;12.68;7.22;;;;;;;;;;5043018;28;20124;-75
2023/08/12 03:59:53;;;;;;;10.73;6.90;;;;;;;;;;5026289;28;20041;-73
2023/08/12 04:02:19;;;;;;;9.65;6.38;;;;;;;;;;5025549;28;20025;-73
2023/08/12 04:04:45;;;;;;;14.20;7.20;;;;;;;;;;5024405;28;20064;-74
2023/08/12 04:07:11;;;;;;;11.70;7.00;;;;;;;;;;5026962;28;20748;-75
2023/08/12 04:09:37;;;;;;;13.98;7.25;;;;;;;;;;5024108;28;20040;-74
2023/08/12 04:12:03;;;;;;;18.95;11.10;;;;;;;;;;5024393;28;20475;-73
2023/08/12 04:14:29;;;;;;;14.00;8.25;;;;;;;;;;5024818;28;20044;-72
2023/08/12 04:16:56;;;;;;;19.30;8.88;;;;;;;;;;5038432;28;20251;-72
2023/08/12 04:19:21;;;;;;;11.80;6.57;;;;;;;;;;5021000;28;20308;-72
2023/08/12 04:21:48;;;;;;;12.63;6.55;;;;;;;;;;5025408;28;20049;-72
2023/08/12 04:24:14;;;;;;;10.65;5.95;;;;;;;;;;5021885;28;20040;-73
2023/08/12 04:26:40;;;;;;;9.48;6.65;;;;;;;;;;5022597;28;20390;-75
2023/08/12 04:29:06;;;;;;;10.27;6.60;;;;;;;;;;5024100;28;20041;-76
2023/08/12 04:31:33;;;;;;;17.67;7.47;;;;;;;;;;5022601;28;20026;-76
2023/08/12 04:33:59;;;;;;;11.93;7.13;;;;;;;;;;5039880;28;20052;-76
2023/08/12 04:36:25;;;;;;;12.65;6.57;;;;;;;;;;5038774;28;20057;-77
2023/08/12 04:38:51;;;;;;;15.40;7.13;;;;;;;;;;5020018;28;20121;-72
2023/08/12 04:41:18;;;;;;;13.07;7.88;;;;;;;;;;5027653;28;20033;-72
2023/08/12 04:43:44;;;;;;;9.95;6.72;;;;;;;;;;5027729;28;20132;-71
2023/08/12 04:46:10;;;;;;;12.15;6.15;;;;;;;;;;5026787;28;20033;-71
2023/08/12 04:48:36;;;;;;;12.05;6.53;;;;;;;;;;5026616;28;20049;-72
2023/08/12 04:51:03;;;;;;;11.88;6.60;;;;;;;;;;5023457;28;20048;-75
2023/08/12 04:53:29;;;;;;;12.10;6.70;;;;;;;;;;5024389;28;20037;-74
2023/08/12 04:55:56;;;;;;;8.63;5.75;;;;;;;;;;5020478;28;20116;-75
2023/08/12 04:58:22;;;;;;;11.23;6.95;;;;;;;;;;5023154;28;20045;-75
2023/08/12 05:00:48;;;;;;;38.00;25.75;;;;;;;;;;5022607;28;20037;-75
2023/08/12 05:03:14;;;;;;;15.75;10.25;;;;;;;;;;5041643;28;20079;-75
2023/08/12 05:05:40;;;;;;;13.32;8.23;;;;;;;;;;5025087;28;20033;-76
2023/08/12 05:08:06;;;;;;;11.85;6.93;;;;;;;;;;5027096;28;20483;-77
2023/08/12 05:10:32;;;;;;;15.48;7.18;;;;;;;;;;5026814;28;20041;-76
2023/08/12 05:12:58;;;;;;;12.10;6.35;;;;;;;;;;5028130;28;20029;-76
2023/08/12 05:15:24;;;;;;;12.98;6.65;;;;;;;;;;5026884;28;20026;-76
2023/08/12 05:17:50;;;;;;;13.00;7.22;;;;;;;;;;5025868;28;20113;-76
2023/08/12 05:20:16;;;;;;;12.85;6.80;;;;;;;;;;5025709;28;20426;-76
2023/08/12 05:22:42;;;;;;;14.50;7.05;;;;;;;;;;5021725;28;20395;-74
2023/08/12 05:25:09;;;;;;;12.77;6.50;;;;;;;;;;5024825;28;20187;-73
2023/08/12 05:27:35;;;;;;;12.65;7.78;;;;;;;;;;5021330;28;20051;-73
2023/08/12 05:30:00;;;;;;;12.85;6.88;;;;;;;;;;5027215;28;20048;-74
2023/08/12 05:32:26;;;;;;;11.13;6.88;;;;;;;;;;5024150;28;20030;-74
2023/08/12 05:34:53;;;;;;;14.23;6.70;;;;;;;;;;5025123;28;20041;-74
2023/08/12 05:37:19;;;;;;;13.95;7.10;;;;;;;;;;5026847;28;20095;-74
2023/08/12 05:39:45;;;;;;;15.00;8.50;;;;;;;;;;5027475;28;20099;-74
2023/08/12 05:42:11;;;;;;;13.70;7.40;;;;;;;;;;5024168;28;20483;-73
2023/08/12 05:44:37;;;;;;;11.68;6.57;;;;;;;;;;5025475;28;20029;-74
2023/08/12 05:47:03;;;;;;;9.63;6.60;;;;;;;;;;5024547;28;20044;-74
2023/08/12 05:49:29;;;;;;;13.98;7.03;;;;;;;;;;5026665;28;20037;-74
2023/08/12 05:51:56;;;;;;;14.35;7.60;;;;;;;;;;5024509;28;20033;-74
2023/08/12 05:54:22;;;;;;;13.73;7.35;;;;;;;;;;5027022;28;20087;-74
2023/08/12 05:56:48;;;;;;;11.60;7.65;;;;;;;;;;5039144;28;20041;-74
2023/08/12 05:59:14;;;;;;;13.02;7.53;;;;;;;;;;5023849;28;20037;-74
2023/08/12 06:01:40;;;;;;;14.68;7.88;;;;;;;;;;5039208;28;20047;-74
2023/08/12 06:04:06;;;;;;;11.65;7.65;;;;;;;;;;5024498;28;20021;-74
2023/08/12 06:06:32;;;;;;;14.23;7.85;;;;;;;;;;5020925;28;20044;-75
2023/08/12 06:08:58;;;;;;;15.15;8.48;;;;;;;;;;5024731;28;20037;-75
2023/08/12 06:11:24;;;;;;;15.32;8.45;;;;;;;;;;5024784;28;20040;-74
2023/08/12 06:13:50;;;;;;;18.50;9.23;;;;;;;;;;5025080;28;20029;-74
2023/08/12 06:16:16;;;;;;;15.73;8.80;;;;;;;;;;5018357;28;20026;-74
2023/08/12 06:18:42;;;;;;;16.77;8.85;;;;;;;;;;5022915;28;20052;-75
2023/08/12 06:21:08;;;;;;;12.98;9.88;;;;;;;;;;5025087;28;20037;-74
2023/08/12 06:23:34;;;;;;;11.95;9.15;;;;;;;;;;5022163;28;20069;-74
2023/08/12 06:26:00;;;;;;;18.42;9.32;;;;;;;;;;5023366;28;20067;-74
2023/08/12 06:28:26;;;;;;;24.77;9.45;;;;;;;;;;5024795;28;20517;-74
2023/08/12 06:30:52;;;;;;;16.00;8.77;;;;;;;;;;5026347;28;20040;-74
2023/08/12 06:33:18;;;;;;;17.90;10.13;;;;;;;;;;5023454;28;20047;-75
2023/08/12 06:35:44;;;;;;;21.02;10.38;;;;;;;;;;5027675;28;20021;-75
2023/08/12 06:38:10;;;;;;;14.10;10.07;;;;;;;;;;5023420;28;20040;-75
2023/08/12 06:40:38;;;;;;;18.27;11.60;;;;;;;;;;5024826;28;20033;-73
2023/08/12 06:43:04;;;;;;;19.05;11.30;;;;;;;;;;5024625;28;20053;-73
2023/08/12 06:45:30;;;;;;;17.30;10.95;;;;;;;;;;5024375;28;20026;-74
2023/08/12 06:47:56;;;;;;;20.40;10.75;;;;;;;;;;5024321;28;20041;-73
2023/08/12 06:50:22;;;;;;;16.77;11.40;;;;;;;;;;5024748;28;20083;-73
2023/08/12 06:52:48;;;;;;;21.67;12.15;;;;;;;;;;5024794;28;20422;-73
2023/08/12 06:55:14;;;;;;;18.13;10.98;;;;;;;;;;5021709;28;20045;-74
2023/08/12 06:57:40;;;;;;;18.95;11.95;;;;;;;;;;5025050;28;20498;-74
2023/08/12 07:00:07;;;;;;;18.55;11.50;;;;;;;;;;5023550;28;20077;-74
2023/08/12 07:02:33;;;;;;;21.35;12.20;;;;;;;;;;5021580;28;20022;-74
2023/08/12 07:04:59;;;;;;;19.05;12.13;;;;;;;;;;5025288;28;20083;-74
2023/08/12 07:07:25;;;;;;;25.60;11.82;;;;;;;;;;5020698;28;20064;-75
2023/08/12 07:09:51;;;;;;;19.90;11.63;;;;;;;;;;5024779;28;20033;-74
2023/08/12 07:12:17;;;;;;;19.52;12.13;;;;;;;;;;5002656;28;20034;-74
2023/08/12 07:14:43;;;;;;;20.60;12.90;;;;;;;;;;5021708;28;20033;-74
2023/08/12 07:17:09;;;;;;;25.50;12.05;;;;;;;;;;5019086;28;20037;-74
2023/08/12 07:19:35;;;;;;;20.90;12.13;;;;;;;;;;5022416;28;20045;-74
2023/08/12 07:22:01;;;;;;;18.85;11.63;;;;;;;;;;5016381;28;20044;-73
2023/08/12 07:24:27;;;;;;;18.33;10.35;;;;;;;;;;5020925;28;20422;-73
2023/08/12 07:26:53;;;;;;;24.17;12.48;;;;;;;;;;5022461;28;20025;-74
2023/08/12 07:29:19;;;;;;;19.48;12.00;;;;;;;;;;5020942;28;20041;-73
2023/08/12 07:31:45;;;;;;;17.33;11.70;;;;;;;;;;5023727;28;20029;-74
2023/08/12 07:34:13;;;;;;;24.55;11.05;;;;;;;;;;5022170;28;20086;-74
2023/08/12 07:36:39;;;;;;;20.42;11.60;;;;;;;;;;5018580;28;20038;-74
2023/08/12 07:39:06;;;;;;;18.23;11.57;;;;;;;;;;5016644;28;20037;-73
2023/08/12 07:41:32;;;;;;;23.17;13.05;;;;;;;;;;5023988;28;20574;-73
2023/08/12 07:43:58;;;;;;;17.08;11.05;;;;;;;;;;5018097;28;20142;-75
2023/08/12 07:46:24;;;;;;;18.98;13.02;;;;;;;;;;5029167;28;20033;-75
2023/08/12 07:48:50;;;;;;;21.20;12.95;;;;;;;;;;5024230;28;20456;-75
2023/08/12 07:51:16;;;;;;;22.40;13.85;;;;;;;;;;5020888;28;20029;-77
2023/08/12 07:53:42;;;;;;;18.88;11.15;;;;;;;;;;5022255;28;20445;-76
2023/08/12 07:56:08;;;;;;;17.85;11.95;;;;;;;;;;5025611;28;20113;-76
2023/08/12 07:58:34;;;;;;;20.35;11.93;;;;;;;;;;5019969;28;20065;-79
2023/08/12 08:01:00;;;;;;;22.10;12.68;;;;;;;;;;5022547;28;20257;-77
2023/08/12 08:03:26;;;;;;;17.05;12.27;;;;;;;;;;5017618;28;20034;-78
2023/08/12 08:05:52;;;;;;;25.02;14.07;;;;;;;;;;5023835;28;20068;-78
2023/08/12 08:08:20;;;;;;;22.27;12.93;;;;;;;;;;5025498;28;20117;-78
2023/08/12 08:10:46;;;;;;;28.70;15.23;;;;;;;;;;5023259;28;20041;-76
2023/08/12 08:13:12;;;;;;;28.80;13.90;;;;;;;;;;5023943;28;20057;-76
2023/08/12 08:15:38;;;;;;;22.88;14.30;;;;;;;;;;5038499;28;20032;-76
2023/08/12 08:18:04;;;;;;;24.52;15.20;;;;;;;;;;5031775;28;20177;-75
2023/08/12 08:20:30;;;;;;;20.45;13.25;;;;;;;;;;5008337;28;21372;-76
2023/08/12 08:22:56;;;;;;;22.60;14.27;;;;;;;;;;5027107;28;20029;-77
2023/08/12 08:25:22;;;;;;;24.60;16.15;;;;;;;;;;5029614;28;20259;-74
2023/08/12 08:27:49;;;;;;;30.98;17.02;;;;;;;;;;5018128;28;20065;-74
2023/08/12 08:30:15;;;;;;;26.00;16.50;;;;;;;;;;5031026;28;20451;-75
2023/08/12 08:32:41;;;;;;;27.95;17.55;;;;;;;;;;5019378;28;20038;-74
2023/08/12 08:35:07;;;;;;;34.45;18.55;;;;;;;;;;5024511;28;20543;-74
2023/08/12 08:37:33;;;;;;;29.25;18.55;;;;;;;;;;5029310;28;20069;-75
2023/08/12 08:39:59;;;;;;;36.20;20.63;;;;;;;;;;5029873;28;20042;-75
2023/08/12 08:42:25;;;;;;;39.55;20.40;;;;;;;;;;5029687;28;20276;-75
2023/08/12 08:44:58;;;;;;;41.15;20.55;;;;;;;;;;5023411;28;20069;-75
2023/08/12 08:47:27;;;;;;;35.05;20.77;;;;;;;;;;5024416;28;20029;-74
2023/08/12 08:49:56;;;;;;;32.78;20.17;;;;;;;;;;5025158;28;20056;-76
2023/08/12 08:52:23;;;;;;;35.53;19.52;;;;;;;;;;5021160;28;20087;-76
2023/08/12 08:54:50;;;;;;;32.67;20.05;;;;;;;;;;5023239;28;20056;-74
2023/08/12 08:57:16;;;;;;;32.33;20.13;;;;;;;;;;5023759;28;20041;-75
2023/08/12 08:59:43;;;;;;;28.05;19.08;;;;;;;;;;5025038;28;20040;-77
2023/08/12 09:02:12;;;;;;;30.88;19.73;;;;;;;;;;5037238;28;20296;-75
2023/08/12 09:04:38;;;;;;;24.65;17.55;;;;;;;;;;5023872;28;20033;-75
2023/08/12 09:07:05;;;;;;;29.23;18.67;;;;;;;;;;5025506;28;20076;-77
2023/08/12 09:09:32;;;;;;;28.42;18.00;;;;;;;;;;5027029;28;20041;-75
2023/08/12 09:11:58;;;;;;;30.23;18.33;;;;;;;;;;5023492;28;20045;-77
2023/08/12 09:14:24;;;;;;;29.60;18.48;;;;;;;;;;5022647;28;20029;-75
2023/08/12 09:16:50;;;;;;;28.42;19.08;;;;;;;;;;5026400;28;20488;-75
2023/08/12 09:19:16;;;;;;;27.05;18.75;;;;;;;;;;5028494;28;20045;-76
2023/08/12 09:21:42;;;;;;;28.10;17.58;;;;;;;;;;5025382;28;20503;-75
2023/08/12 09:24:08;;;;;;;31.70;19.63;;;;;;;;;;5024612;28;20394;-76
2023/08/12 09:26:34;;;;;;;25.80;17.63;;;;;;;;;;5025082;28;20494;-75
2023/08/12 09:29:00;;;;;;;23.75;17.23;;;;;;;;;;5025945;28;20033;-76
2023/08/12 09:31:28;;;;;;;22.05;16.90;;;;;;;;;;5019784;28;20046;-76
2023/08/12 09:33:54;;;;;;;22.92;17.02;;;;;;;;;;5028143;28;20495;-75
2023/08/12 09:36:22;;;;;;;26.38;17.42;;;;;;;;;;5023228;28;20408;-75
2023/08/12 09:38:48;;;;;;;19.92;13.15;;;;;;;;;;5027472;28;20470;-76
2023/08/12 09:41:14;;;;;;;24.20;13.57;;;;;;;;;;5017427;28;20041;-78
2023/08/12 09:43:43;;;;;;;15.95;11.63;;;;;;;;;;5018864;28;20414;-76
2023/08/12 09:46:15;;;;;;;16.73;11.50;;;;;;;;;;5019906;28;20055;-76
2023/08/12 09:48:41;;;;;;;11.88;8.57;;;;;;;;;;5017248;28;20041;-76
2023/08/12 09:51:08;;;;;;;14.57;10.68;;;;;;;;;;5022602;28;20167;-77
2023/08/12 09:53:34;;;;;;;14.48;8.85;;;;;;;;;;5016230;28;20029;-77
2023/08/12 09:56:19;;;;;;;11.80;8.15;;;;;;;;;;5017606;28;20144;-75
2023/08/12 09:58:48;;;;;;;15.65;8.38;;;;;;;;;;5022619;28;20037;-75
2023/08/12 10:01:14;;;;;;;10.32;8.38;;;;;;;;;;5023086;28;20142;-76
2023/08/12 10:03:42;;;;;;;11.70;8.38;;;;;;;;;;5023388;28;20445;-77
2023/08/12 10:06:08;;;;;;;20.05;9.23;;;;;;;;;;5037699;28;20148;-77
2023/08/12 10:08:35;;;;;;;12.57;9.45;;;;;;;;;;5021935;28;20128;-78
2023/08/12 10:11:02;;;;;;;13.52;11.32;;;;;;;;;;5019461;28;20056;-75
2023/08/12 10:13:28;;;;;;;8.38;7.43;;;;;;;;;;5027203;28;20034;-74
2023/08/12 10:15:54;;;;;;;10.13;7.70;;;;;;;;;;5027191;28;20032;-74
2023/08/12 10:18:20;;;;;;;8.55;7.60;;;;;;;;;;5019659;28;20041;-76
2023/08/12 10:20:47;;;;;;;10.48;7.28;;;;;;;;;;5021188;28;20033;-75
2023/08/12 10:23:18;;;;;;;8.88;6.60;;;;;;;;;;5022566;28;20029;-76
2023/08/12 10:25:45;;;;;;;10.40;6.88;;;;;;;;;;5022706;28;20026;-73
2023/08/12 10:28:13;;;;;;;6.57;5.25;;;;;;;;;;5020772;28;20017;-77
2023/08/12 10:30:43;;;;;;;4.47;4.00;;;;;;;;;;5023117;28;20116;-74
2023/08/12 10:33:10;;;;;;;1.95;1.83;;;;;;;;;;5021197;28;20111;-73
2023/08/12 10:35:42;;;;;;;9.30;2.63;;;;;;;;;;5022615;28;20120;-76
2023/08/12 10:38:08;;;;;;;;;;;;;;;;;;5019808;28;20120;-75
2023/08/12 10:40:34;;;;;;;4.95;2.53;;;;;;;;;;5020643;28;19921;-74
2023/08/12 10:43:00;;;;;;;4.18;2.58;;;;;;;;;;5022405;28;20118;-74
2023/08/12 10:45:41;;;;;;;5.93;2.38;;;;;;;;;;5019104;28;20037;-75
2023/08/12 10:48:25;;;;;;;6.65;3.20;;;;;;;;;;5023621;28;20391;-75
2023/08/12 10:50:56;;;;;;;7.03;2.70;;;;;;;;;;5021044;28;20088;-76
2023/08/12 10:53:29;;;;;;;10.25;2.60;;;;;;;;;;5023425;28;20025;-76
2023/08/12 10:55:55;;;;;;;6.57;2.38;;;;;;;;;;5022962;28;20053;-76
2023/08/12 10:58:25;;;;;;;10.90;5.22;;;;;;;;;;5023706;28;20124;-76
2023/08/12 11:00:55;;;;;;;7.68;2.08;;;;;;;;;;5018626;28;20029;-75
2023/08/12 11:03:21;;;;;;;10.07;3.63;;;;;;;;;;5023222;28;20048;-76
2023/08/12 11:05:47;;;;;;;5.47;2.05;;;;;;;;;;5021860;28;20033;-75
2023/08/12 11:08:13;;;;;;;6.13;1.95;;;;;;;;;;5018969;28;20412;-76
2023/08/12 11:10:40;;;;;;;5.55;2.33;;;;;;;;;;5022194;28;20033;-74
2023/08/12 11:13:06;;;;;;;8.23;2.20;;;;;;;;;;5024996;28;20057;-77
2023/08/12 11:15:41;;;;;;;5.28;1.90;;;;;;;;;;5019498;28;20025;-79
2023/08/12 11:18:08;;;;;;;9.10;1.95;;;;;;;;;;5016952;28;20391;-76
2023/08/12 11:20:34;;;;;;;6.10;2.63;;;;;;;;;;5023994;28;20091;-78
2023/08/12 11:23:01;;;;;;;8.52;2.53;;;;;;;;;;5022373;28;20038;-74
2023/08/12 11:25:29;;;;;;;3.78;1.88;;;;;;;;;;5021657;28;20037;-77
2023/08/12 11:27:55;;;;;;;5.72;2.10;;;;;;;;;;5021899;28;20041;-75
2023/08/12 11:30:22;;;;;;;7.25;2.88;;;;;;;;;;5013992;28;20030;-74
2023/08/12 11:32:51;;;;;;;7.05;2.38;;;;;;;;;;5019725;28;20514;-75
2023/08/12 11:35:18;;;;;;;8.27;2.70;;;;;;;;;;5019702;28;20399;-74
2023/08/12 11:37:46;;;;;;;10.55;4.63;;;;;;;;;;5023544;28;20447;-75
2023/08/12 11:40:14;;;;;;;10.57;4.50;;;;;;;;;;5023445;28;20033;-75
2023/08/12 11:42:42;;;;;;;6.63;2.35;;;;;;;;;;5024644;28;20641;-75
2023/08/12 11:45:09;;;;;;;6.82;2.20;;;;;;;;;;5042374;28;20040;-76
2023/08/12 11:47:35;;;;;;;5.85;2.50;;;;;;;;;;5024325;28;20802;-73
2023/08/12 11:50:05;;;;;;;7.90;1.85;;;;;;;;;;5028622;28;20104;-73
2023/08/12 11:52:31;;;;;;;6.35;2.10;;;;;;;;;;5023060;28;20473;-74
2023/08/12 11:54:57;;;;;;;7.05;2.55;;;;;;;;;;5025281;28;20505;-73
2023/08/12 11:57:23;;;;;;;9.88;2.72;;;;;;;;;;5023149;28;20037;-73
2023/08/12 11:59:52;;;;;;;8.25;2.97;;;;;;;;;;5026578;28;20041;-73
2023/08/12 12:02:19;;;;;;;6.93;3.58;;;;;;;;;;5023494;28;20048;-73
2023/08/12 12:04:45;;;;;;;11.25;2.92;;;;;;;;;;5026680;28;20041;-72
2023/08/12 12:07:25;;;;;;;9.15;3.00;;;;;;;;;;5024636;28;20387;-73
2023/08/12 12:09:52;;;;;;;5.32;2.72;;;;;;;;;;5020207;28;20124;-73
2023/08/12 12:12:18;;;;;;;11.10;2.85;;;;;;;;;;5026651;28;20054;-74
2023/08/12 12:14:44;;;;;;;10.18;3.05;;;;;;;;;;5027795;28;20029;-74
2023/08/12 12:17:10;;;;;;;12.32;3.83;;;;;;;;;;5036488;28;20112;-74
2023/08/12 12:19:36;;;;;;;8.98;3.17;;;;;;;;;;5020000;28;20046;-75
2023/08/12 12:22:05;;;;;;;6.13;2.72;;;;;;;;;;5017717;28;20447;-72
2023/08/12 12:24:31;;;;;;;8.95;3.42;;;;;;;;;;5023061;28;20044;-73
2023/08/12 12:26:57;;;;;;;7.03;2.50;;;;;;;;;;5019670;28;20021;-72
2023/08/12 12:29:23;;;;;;;5.68;2.45;;;;;;;;;;5025214;28;20411;-71
2023/08/12 12:31:49;;;;;;;6.47;2.50;;;;;;;;;;5036547;28;20037;-71
2023/08/12 12:34:17;;;;;;;9.52;2.95;;;;;;;;;;5028233;28;20083;-72
2023/08/12 12:36:43;;;;;;;6.97;2.40;;;;;;;;;;5026937;28;20732;-73
2023/08/12 12:39:09;;;;;;;5.88;2.35;;;;;;;;;;5029680;28;20037;-72
2023/08/12 12:41:35;;;;;;;11.85;3.00;;;;;;;;;;5028568;28;20069;-72
2023/08/12 12:44:01;;;;;;;12.10;2.25;;;;;;;;;;5029156;28;20054;-73
2023/08/12 12:46:27;;;;;;;11.13;2.60;;;;;;;;;;5029016;28;20040;-72
2023/08/12 12:48:53;;;;;;;8.93;3.28;;;;;;;;;;5029535;28;20037;-72
2023/08/12 12:51:19;;;;;;;9.93;3.17;;;;;;;;;;5027502;28;20398;-73
2023/08/12 12:53:45;;;;;;;8.02;2.92;;;;;;;;;;5033470;28;20040;-74
2023/08/12 12:56:11;;;;;;;6.68;2.67;;;;;;;;;;5027761;28;20088;-73
2023/08/12 12:58:38;;;;;;;11.07;2.80;;;;;;;;;;5029119;28;20034;-73
2023/08/12 13:01:05;;;;;;;7.57;2.55;;;;;;;;;;5029278;28;20051;-73
2023/08/12 13:03:31;;;;;;;11.32;2.97;;;;;;;;;;5029591;28;20037;-73
2023/08/12 13:05:57;;;;;;;8.02;2.30;;;;;;;;;;5028182;28;20076;-75
2023/08/12 13:08:24;;;;;;;9.75;2.78;;;;;;;;;;5027573;28;20566;-72
2023/08/12 13:10:50;;;;;;;8.15;1.80;;;;;;;;;;5028545;28;20067;-72
2023/08/12 13:13:16;;;;;;;7.10;2.08;;;;;;;;;;5042899;28;20031;-73
2023/08/12 13:15:43;;;;;;;14.43;2.25;;;;;;;;;;5024996;28;20109;-73
2023/08/12 13:18:09;;;;;;;12.73;2.35;;;;;;;;;;5028819;28;20037;-73
2023/08/12 13:20:35;;;;;;;10.07;2.20;;;;;;;;;;5026055;28;20072;-72
2023/08/12 13:23:01;;;;;;;9.57;2.45;;;;;;;;;;5028475;28;20396;-72
2023/08/12 13:25:31;;;;;;;11.75;2.50;;;;;;;;;;5027321;28;20179;-72
2023/08/12 13:27:57;;;;;;;8.95;2.20;;;;;;;;;;5026912;28;20060;-73
2023/08/12 13:30:23;;;;;;;8.05;2.47;;;;;;;;;;5029281;28;20033;-72
2023/08/12 13:32:49;;;;;;;8.18;1.95;;;;;;;;;;5044321;28;20124;-73
2023/08/12 13:35:15;;;;;;;16.52;2.00;;;;;;;;;;5042672;28;20038;-74
2023/08/12 13:37:41;;;;;;;9.75;2.65;;;;;;;;;;5028610;28;20038;-74
2023/08/12 13:40:09;;;;;;;12.40;2.55;;;;;;;;;;5029340;28;20037;-73
2023/08/12 13:42:35;;;;;;;9.75;2.38;;;;;;;;;;5026414;28;20065;-72
2023/08/12 13:45:01;;;;;;;8.48;2.53;;;;;;;;;;5028226;28;20499;-73
2023/08/12 13:47:27;;;;;;;7.40;1.65;;;;;;;;;;5023542;28;20464;-72
2023/08/12 13:49:53;;;;;;;8.35;2.25;;;;;;;;;;5028355;28;20479;-72
2023/08/12 13:52:19;;;;;;;8.07;2.05;;;;;;;;;;5028847;28;20498;-73
2023/08/12 13:54:45;;;;;;;7.38;1.83;;;;;;;;;;5028898;28;20042;-72
2023/08/12 13:57:11;;;;;;;13.10;2.67;;;;;;;;;;5027079;28;20061;-75
2023/08/12 13:59:37;;;;;;;7.85;1.92;;;;;;;;;;5027217;28;20057;-72
2023/08/12 14:02:03;;;;;;;10.27;2.80;;;;;;;;;;5027642;28;20049;-72
2023/08/12 14:04:29;;;;;;;8.52;2.00;;;;;;;;;;5043650;28;20034;-71
2023/08/12 14:06:55;;;;;;;9.68;1.92;;;;;;;;;;5028479;28;20483;-73
2023/08/12 14:09:21;;;;;;;10.82;2.17;;;;;;;;;;5024110;28;20037;-73
2023/08/12 14:11:48;;;;;;;12.18;2.25;;;;;;;;;;5029172;28;20038;-73
2023/08/12 14:14:14;;;;;;;8.95;1.92;;;;;;;;;;5024711;28;20057;-75
2023/08/12 14:16:40;;;;;;;9.45;1.90;;;;;;;;;;5026629;28;20483;-72
2023/08/12 14:19:06;;;;;;;7.70;1.77;;;;;;;;;;5026314;28;20479;-74
2023/08/12 14:21:32;;;;;;;11.35;1.95;;;;;;;;;;5025828;28;20099;-73
2023/08/12 14:23:58;;;;;;;12.52;2.95;;;;;;;;;;5028028;28;20474;-73
2023/08/12 14:26:24;;;;;;;8.77;1.88;;;;;;;;;;5028552;28;20029;-73
2023/08/12 14:28:50;;;;;;;9.70;2.67;;;;;;;;;;5026632;28;20037;-73